Time;durP1;ratioP1;P1;durP2;ratioP2;P2;SDS_P1;SDS_P2;PMS_P1;PMS_P2;Temp;Humidity;BMP_temperature;BMP_pressure;BME280_temperature;BME280_humidity;BME280_pressure;Samples;Min_cycle;Max_cycle;Signal;HPM_P1;HPM_P2
2022/04/23 00:01:35;;;;;;;3.33;2.87;;;9.30;99.90;;;;;;5013199;28;20483;-85
2022/04/23 00:04:01;;;;;;;3.13;1.90;;;9.30;99.90;;;;;;5013382;28;20173;-87
2022/04/23 00:06:27;;;;;;;3.33;2.40;;;9.20;99.90;;;;;;5017638;28;20198;-87
2022/04/23 00:08:52;;;;;;;3.27;2.03;;;9.20;99.90;;;;;;5019540;28;20421;-86
2022/04/23 00:11:18;;;;;;;4.57;2.33;;;9.10;99.90;;;;;;5034621;28;20213;-86
2022/04/23 00:13:44;;;;;;;4.30;2.07;;;8.90;99.90;;;;;;5034146;28;20174;-85
2022/04/23 00:16:10;;;;;;;3.57;1.83;;;9.00;99.90;;;;;;5034688;28;20178;-86
2022/04/23 00:18:36;;;;;;;3.87;2.27;;;8.90;99.90;;;;;;5019527;28;20456;-85
2022/04/23 00:21:03;;;;;;;4.83;3.03;;;8.90;99.90;;;;;;5034739;28;20461;-88
2022/04/23 00:23:31;;;;;;;7.27;2.53;;;8.70;99.90;;;;;;5034843;28;20188;-87
2022/04/23 00:25:58;;;;;;;2.90;1.97;;;8.70;99.90;;;;;;5034638;28;20431;-85
2022/04/23 00:28:24;;;;;;;3.17;2.53;;;8.70;99.90;;;;;;5018726;28;20425;-85
2022/04/23 00:30:51;;;;;;;4.60;2.60;;;8.60;99.90;;;;;;5018071;28;20431;-87
2022/04/23 00:33:17;;;;;;;3.57;2.47;;;8.60;99.90;;;;;;5018531;28;20181;-86
2022/04/23 00:35:44;;;;;;;3.67;2.40;;;8.50;99.90;;;;;;5019459;28;20893;-88
2022/04/23 00:38:09;;;;;;;4.07;2.77;;;8.40;99.90;;;;;;5034671;28;20215;-85
2022/04/23 00:40:35;;;;;;;5.47;2.90;;;8.50;99.90;;;;;;5019411;28;20411;-87
2022/04/23 00:43:01;;;;;;;6.80;3.50;;;8.50;99.90;;;;;;5034178;28;20577;-87
2022/04/23 00:45:27;;;;;;;6.37;2.70;;;8.40;99.90;;;;;;5034583;28;20182;-88
2022/04/23 00:47:54;;;;;;;3.07;2.43;;;8.40;99.90;;;;;;5034570;28;21022;-86
2022/04/23 00:50:21;;;;;;;3.87;3.00;;;8.30;99.90;;;;;;5019366;28;20459;-86
2022/04/23 00:53:01;;;;;;;4.87;3.30;;;8.30;99.90;;;;;;5019224;28;20427;-86
2022/04/23 00:55:28;;;;;;;4.63;2.60;;;8.20;99.90;;;;;;5034600;28;20428;-85
2022/04/23 00:57:54;;;;;;;4.40;2.30;;;8.30;99.90;;;;;;5018815;28;20458;-87
2022/04/23 01:00:20;;;;;;;3.77;2.37;;;8.20;99.90;;;;;;5019184;28;20424;-86
2022/04/23 01:02:45;;;;;;;4.60;2.67;;;8.20;99.90;;;;;;5019005;28;20487;-86
2022/04/23 01:05:12;;;;;;;4.03;2.97;;;8.10;99.90;;;;;;5019265;28;20176;-84
2022/04/23 01:07:42;;;;;;;3.23;2.93;;;8.10;99.90;;;;;;5019279;28;20176;-85
2022/04/23 01:10:08;;;;;;;5.00;2.57;;;8.10;99.90;;;;;;5019128;28;20409;-87
2022/04/23 01:12:35;;;;;;;4.87;3.27;;;8.00;99.90;;;;;;5034033;28;20428;-85
2022/04/23 01:15:06;;;;;;;5.67;3.17;;;7.90;99.90;;;;;;5034407;28;20865;-85
2022/04/23 01:17:32;;;;;;;4.60;2.90;;;7.90;99.90;;;;;;5016814;28;20416;-86
2022/04/23 01:20:03;;;;;;;4.87;2.77;;;8.00;99.90;;;;;;5016018;28;20937;-85
2022/04/23 01:22:29;;;;;;;5.43;2.73;;;7.90;99.90;;;;;;5015727;28;20256;-86
2022/04/23 01:24:55;;;;;;;4.60;2.60;;;7.80;99.90;;;;;;5031187;28;20822;-85
2022/04/23 01:27:25;;;;;;;5.00;3.07;;;7.80;99.90;;;;;;5015500;28;20425;-87
2022/04/23 01:29:51;;;;;;;4.67;3.10;;;7.70;99.90;;;;;;5015872;28;20414;-87
2022/04/23 01:32:16;;;;;;;5.83;3.33;;;7.70;99.90;;;;;;5030790;28;20944;-87
2022/04/23 01:34:42;;;;;;;5.00;3.63;;;7.70;99.90;;;;;;5015773;28;20874;-85
2022/04/23 01:37:08;;;;;;;7.63;3.53;;;7.70;99.90;;;;;;5030980;28;20175;-86
2022/04/23 01:39:34;;;;;;;7.43;3.80;;;7.70;99.90;;;;;;5015665;28;20170;-87
2022/04/23 01:42:00;;;;;;;11.90;4.53;;;7.70;99.90;;;;;;5030764;28;20687;-86
2022/04/23 01:44:25;;;;;;;6.00;3.53;;;7.50;99.90;;;;;;5031006;28;20428;-86
2022/04/23 01:46:51;;;;;;;3.80;2.73;;;7.50;99.90;;;;;;5030807;28;20194;-86
2022/04/23 01:49:16;;;;;;;5.37;3.93;;;7.50;99.90;;;;;;5015594;28;20176;-85
2022/04/23 01:51:42;;;;;;;6.27;3.83;;;7.60;99.90;;;;;;5015524;28;20171;-86
2022/04/23 01:54:07;;;;;;;5.80;4.40;;;7.40;99.90;;;;;;5015473;28;20232;-85
2022/04/23 01:56:33;;;;;;;6.40;4.17;;;7.40;99.90;;;;;;5030624;28;20696;-86
2022/04/23 01:58:58;;;;;;;4.87;4.10;;;7.40;99.90;;;;;;5015203;28;20169;-87
2022/04/23 02:01:24;;;;;;;4.80;3.23;;;7.30;99.90;;;;;;5031075;28;20264;-89
2022/04/23 02:03:51;;;;;;;6.30;4.57;;;7.30;99.90;;;;;;5015850;28;20222;-89
2022/04/23 02:06:17;;;;;;;5.67;3.37;;;7.20;99.90;;;;;;5031048;28;20181;-88
2022/04/23 02:08:43;;;;;;;8.67;4.40;;;7.20;99.90;;;;;;5015597;28;20772;-90
2022/04/23 02:11:08;;;;;;;10.20;4.53;;;7.20;99.90;;;;;;5030985;28;20187;-88
2022/04/23 02:13:34;;;;;;;9.67;4.70;;;7.20;99.90;;;;;;5015176;28;20211;-87
2022/04/23 02:16:05;;;;;;;5.90;4.40;;;7.10;99.90;;;;;;5015329;28;20526;-86
2022/04/23 02:18:32;;;;;;;5.40;4.00;;;7.10;99.90;;;;;;5015119;28;20172;-87
2022/04/23 02:20:58;;;;;;;8.40;4.07;;;7.10;99.90;;;;;;5030068;28;20436;-88
2022/04/23 02:23:24;;;;;;;7.00;4.97;;;7.10;99.90;;;;;;5030079;28;20423;-87
2022/04/23 02:25:49;;;;;;;5.57;4.07;;;7.10;99.90;;;;;;5014941;28;20528;-86
2022/04/23 02:28:15;;;;;;;5.40;4.63;;;7.00;99.90;;;;;;5029630;28;20182;-86
2022/04/23 02:30:40;;;;;;;7.10;4.53;;;6.90;99.90;;;;;;5014752;28;20168;-85
2022/04/23 02:33:06;;;;;;;8.53;5.13;;;6.90;99.90;;;;;;5014799;28;20171;-85
2022/04/23 02:35:34;;;;;;;6.47;5.07;;;6.80;99.90;;;;;;5014562;28;20203;-87
2022/04/23 02:38:02;;;;;;;9.43;6.77;;;6.80;99.90;;;;;;5014949;28;20614;-87
2022/04/23 02:40:31;;;;;;;9.57;5.23;;;6.80;99.90;;;;;;5014706;28;20512;-87
2022/04/23 02:42:57;;;;;;;8.90;5.97;;;6.70;99.90;;;;;;5014034;28;20986;-86
2022/04/23 02:45:24;;;;;;;7.23;6.23;;;6.70;99.90;;;;;;5029808;28;20517;-87
2022/04/23 02:47:53;;;;;;;6.60;5.83;;;6.70;99.90;;;;;;5029564;28;20422;-86
2022/04/23 02:50:48;;;;;;;10.43;6.03;;;6.70;99.90;;;;;;5014442;28;20513;-85
2022/04/23 02:53:13;;;;;;;10.97;6.10;;;6.70;99.90;;;;;;5012961;28;20414;-87
2022/04/23 02:55:39;;;;;;;8.83;5.93;;;6.60;99.90;;;;;;5014451;28;20415;-87
2022/04/23 02:58:09;;;;;;;7.80;5.60;;;6.70;99.90;;;;;;5013695;28;20297;-85
2022/04/23 03:00:37;;;;;;;7.57;6.77;;;6.60;99.90;;;;;;5014227;28;20171;-85
2022/04/23 03:03:03;;;;;;;12.10;6.13;;;6.70;99.90;;;;;;5014224;28;21000;-87
2022/04/23 03:05:30;;;;;;;8.30;6.93;;;6.60;99.90;;;;;;5014325;28;20426;-86
2022/04/23 03:07:55;;;;;;;10.67;6.30;;;6.50;99.90;;;;;;5014099;28;20417;-86
2022/04/23 03:10:21;;;;;;;8.47;6.67;;;6.50;99.90;;;;;;5014139;28;20407;-85
2022/04/23 03:12:47;;;;;;;11.43;7.57;;;6.60;99.90;;;;;;5013794;28;20585;-86
2022/04/23 03:15:16;;;;;;;9.20;6.13;;;6.50;99.90;;;;;;5013982;28;20424;-85
2022/04/23 03:17:43;;;;;;;8.37;6.23;;;6.50;99.90;;;;;;5014016;28;20639;-87
2022/04/23 03:20:09;;;;;;;8.80;6.47;;;6.40;99.90;;;;;;5029525;28;20756;-87
2022/04/23 03:22:38;;;;;;;11.07;7.67;;;6.50;99.90;;;;;;5013849;28;21003;-87
2022/04/23 03:25:05;;;;;;;8.87;5.93;;;6.50;99.90;;;;;;5029299;28;20926;-86
2022/04/23 03:27:31;;;;;;;11.90;9.40;;;6.40;99.90;;;;;;5023497;28;20494;-85
2022/04/23 03:30:00;;;;;;;7.73;6.63;;;6.40;99.90;;;;;;4992489;28;20464;-86
2022/04/23 03:32:26;;;;;;;8.90;6.07;;;6.30;99.90;;;;;;4993809;28;20647;-85
2022/04/23 03:34:51;;;;;;;8.30;7.40;;;6.30;99.90;;;;;;4992536;28;20951;-84
2022/04/23 03:37:17;;;;;;;10.13;7.10;;;6.30;99.90;;;;;;4992609;28;20462;-87
2022/04/23 03:39:44;;;;;;;8.47;6.97;;;6.20;99.90;;;;;;4993690;28;20220;-86
2022/04/23 03:42:10;;;;;;;13.20;8.00;;;6.30;99.90;;;;;;4992892;28;20584;-86
2022/04/23 03:44:35;;;;;;;8.30;6.30;;;6.20;99.90;;;;;;4993848;28;20450;-85
2022/04/23 03:47:01;;;;;;;13.37;7.07;;;6.30;99.90;;;;;;5008765;28;20458;-85
2022/04/23 03:49:28;;;;;;;10.27;6.30;;;6.20;99.90;;;;;;5008864;28;20176;-86
2022/04/23 03:51:54;;;;;;;14.03;8.80;;;6.10;99.90;;;;;;4993648;28;20168;-86
2022/04/23 03:54:20;;;;;;;9.10;6.00;;;6.20;99.90;;;;;;4993786;28;20521;-85
2022/04/23 03:56:46;;;;;;;9.90;7.57;;;6.20;99.90;;;;;;5008505;28;20230;-86
2022/04/23 03:59:12;;;;;;;12.50;8.03;;;6.10;99.90;;;;;;4994400;28;20203;-88
2022/04/23 04:01:37;;;;;;;10.40;6.63;;;6.10;99.90;;;;;;4998394;28;20485;-86
2022/04/23 04:04:03;;;;;;;8.20;6.67;;;6.10;99.90;;;;;;5001998;28;20175;-85
2022/04/23 04:06:28;;;;;;;9.27;6.90;;;6.20;99.90;;;;;;5010813;28;20176;-87
2022/04/23 04:08:55;;;;;;;8.50;6.80;;;6.10;99.90;;;;;;4995502;28;20227;-87
2022/04/23 04:11:21;;;;;;;12.73;7.43;;;6.20;99.90;;;;;;5010417;28;20183;-88
2022/04/23 04:13:47;;;;;;;12.00;7.60;;;6.30;99.90;;;;;;4992101;28;20419;-85
2022/04/23 04:16:13;;;;;;;11.77;7.63;;;6.20;99.90;;;;;;5008419;28;21368;-85
2022/04/23 04:18:40;;;;;;;10.73;8.87;;;6.10;99.90;;;;;;4993270;28;20485;-86
2022/04/23 04:21:06;;;;;;;10.07;7.37;;;6.10;99.90;;;;;;5008283;28;20481;-85
2022/04/23 04:23:31;;;;;;;10.33;7.43;;;6.20;99.90;;;;;;4993192;28;20490;-86
2022/04/23 04:25:57;;;;;;;9.40;7.17;;;6.10;99.90;;;;;;4993224;28;20458;-85
2022/04/23 04:28:23;;;;;;;11.57;8.37;;;6.20;99.90;;;;;;5008123;28;20188;-84
2022/04/23 04:33:37;;;;;;;9.30;7.27;;;6.20;99.90;;;;;;4974387;28;20513;-87
2022/04/23 04:36:03;;;;;;;12.60;7.63;;;6.10;99.90;;;;;;5008200;28;20423;-87
2022/04/23 04:38:28;;;;;;;13.40;7.70;;;6.20;99.90;;;;;;5008107;28;20176;-86
2022/04/23 04:40:54;;;;;;;10.17;7.50;;;6.20;99.90;;;;;;5008011;28;20539;-87
2022/04/23 04:43:19;;;;;;;11.23;7.20;;;6.20;99.90;;;;;;4992712;28;20207;-84
2022/04/23 04:45:45;;;;;;;10.20;8.07;;;6.20;99.90;;;;;;5008044;28;20547;-86
2022/04/23 04:48:10;;;;;;;12.30;7.90;;;6.20;99.90;;;;;;4993060;28;20683;-85
2022/04/23 04:50:36;;;;;;;12.93;8.23;;;6.20;99.90;;;;;;5008099;28;20168;-87
2022/04/23 04:53:01;;;;;;;13.37;9.30;;;6.20;99.90;;;;;;5009510;28;20265;-86
2022/04/23 04:55:27;;;;;;;13.60;8.77;;;6.20;99.90;;;;;;5011845;28;20832;-85
2022/04/23 04:57:52;;;;;;;14.40;8.23;;;6.40;99.90;;;;;;4996365;28;20230;-86
2022/04/23 05:00:19;;;;;;;10.67;6.80;;;6.40;99.90;;;;;;5011559;28;20255;-86
2022/04/23 05:02:44;;;;;;;15.07;9.43;;;6.50;99.90;;;;;;4996485;28;20200;-86
2022/04/23 05:05:10;;;;;;;12.93;9.53;;;6.60;99.90;;;;;;5011604;28;20410;-86
2022/04/23 05:07:36;;;;;;;14.90;8.93;;;6.50;99.90;;;;;;5011665;28;20666;-85
2022/04/23 05:10:03;;;;;;;10.70;7.90;;;6.60;99.90;;;;;;4996329;28;20661;-85
2022/04/23 05:12:29;;;;;;;12.90;8.40;;;6.60;99.90;;;;;;4996225;28;20389;-85
2022/04/23 05:14:54;;;;;;;11.93;8.87;;;6.70;99.90;;;;;;4996436;28;20503;-85
2022/04/23 05:17:20;;;;;;;12.93;9.60;;;7.00;99.90;;;;;;5024845;28;20179;-85
2022/04/23 05:19:45;;;;;;;11.13;7.93;;;7.30;99.90;;;;;;5011260;28;20214;-85
2022/04/23 05:22:11;;;;;;;10.50;8.03;;;7.60;99.90;;;;;;4996139;28;20211;-88
2022/04/23 05:24:36;;;;;;;12.00;8.37;;;7.80;99.90;;;;;;5011153;28;20542;-86
2022/04/23 05:27:02;;;;;;;11.33;7.73;;;8.20;99.90;;;;;;4994583;28;20176;-86
2022/04/23 05:29:27;;;;;;;10.23;7.37;;;8.70;56.00;;;;;;4994747;28;20174;-85
2022/04/23 05:31:53;;;;;;;11.97;7.47;;;9.10;1.00;;;;;;5011018;28;20179;-86
2022/04/23 05:34:18;;;;;;;10.23;7.07;;;9.30;1.00;;;;;;4996548;28;20187;-86
2022/04/23 05:36:44;;;;;;;8.87;7.40;;;9.30;1.00;;;;;;4995916;28;20174;-87
2022/04/23 05:39:10;;;;;;;12.00;6.90;;;9.80;99.90;;;;;;4996027;28;20174;-86
2022/04/23 05:41:36;;;;;;;8.60;6.03;;;9.90;1.00;;;;;;5001431;28;20465;-86
2022/04/23 05:44:01;;;;;;;9.00;6.60;;;10.30;1.00;;;;;;5030659;28;20280;-87
2022/04/23 05:46:28;;;;;;;8.50;7.40;;;10.40;1.00;;;;;;5015212;28;20643;-86
2022/04/23 05:48:54;;;;;;;8.83;5.40;;;10.70;99.90;;;;;;5015162;28;20195;-85
2022/04/23 05:51:20;;;;;;;7.10;6.07;;;11.00;1.00;;;;;;5030343;28;20980;-85
2022/04/23 05:53:45;;;;;;;8.20;5.47;;;11.30;1.00;;;;;;5030268;28;20167;-85
2022/04/23 05:56:11;;;;;;;6.77;6.17;;;11.70;1.00;;;;;;5014765;28;20235;-86
2022/04/23 05:58:36;;;;;;;8.47;6.57;;;12.00;99.90;;;;;;5029847;28;20653;-86
2022/04/23 06:01:02;;;;;;;9.07;7.00;;;12.30;99.90;;;;;;5014725;28;20177;-87
2022/04/23 06:03:28;;;;;;;6.67;5.80;;;13.00;99.90;;;;;;5014592;28;20211;-83
2022/04/23 06:05:53;;;;;;;8.00;6.50;;;13.50;99.90;;;;;;5015315;28;20412;-87
2022/04/23 06:08:20;;;;;;;7.03;5.60;;;14.00;99.90;;;;;;5014906;28;20185;-83
2022/04/23 06:10:45;;;;;;;6.90;6.10;;;14.30;99.90;;;;;;5014898;28;20169;-84
2022/04/23 06:13:11;;;;;;;8.70;5.60;;;15.80;99.90;;;;;;5014420;28;20770;-84
2022/04/23 06:15:36;;;;;;;8.77;5.83;;;15.80;91.20;;;;;;5014982;28;20647;-86
2022/04/23 06:18:02;;;;;;;7.10;6.23;;;16.10;27.10;;;;;;5014738;28;20638;-85
2022/04/23 06:20:30;;;;;;;7.10;6.00;;;16.70;37.20;;;;;;5015054;28;20268;-86
2022/04/23 06:22:56;;;;;;;8.03;6.37;;;16.60;20.80;;;;;;5014684;28;20236;-85
2022/04/23 06:25:21;;;;;;;6.93;5.97;;;17.40;18.70;;;;;;5013220;28;20418;-85
2022/04/23 06:27:47;;;;;;;7.83;5.90;;;17.90;11.40;;;;;;5029382;28;20742;-86
2022/04/23 06:30:13;;;;;;;7.57;6.80;;;18.20;4.80;;;;;;5014321;28;20172;-84
2022/04/23 06:32:39;;;;;;;6.90;5.90;;;19.10;3.50;;;;;;5014412;28;20654;-86
2022/04/23 06:35:06;;;;;;;6.97;5.83;;;18.70;1.00;;;;;;5013935;28;20256;-85
2022/04/23 06:37:36;;;;;;;6.73;6.17;;;19.50;1.00;;;;;;5029603;28;20837;-84
2022/04/23 06:40:02;;;;;;;7.57;5.73;;;19.10;1.00;;;;;;5014125;28;20425;-83
2022/04/23 06:42:27;;;;;;;6.90;6.20;;;18.70;1.00;;;;;;5012385;28;20568;-84
2022/04/23 06:44:53;;;;;;;6.57;5.70;;;18.80;1.00;;;;;;5014134;28;20558;-85
2022/04/23 06:47:18;;;;;;;8.00;6.60;;;18.60;1.00;;;;;;5013912;28;20181;-84
2022/04/23 06:49:43;;;;;;;6.70;6.07;;;19.10;1.00;;;;;;5014019;28;20681;-84
2022/04/23 06:52:09;;;;;;;6.40;5.80;;;19.00;1.00;;;;;;5014013;28;20174;-84
2022/04/23 06:54:34;;;;;;;6.40;5.80;;;19.80;1.00;;;;;;5014147;28;20178;-85
2022/04/23 06:57:00;;;;;;;6.50;5.90;;;20.10;1.00;;;;;;5013247;28;20309;-87
2022/04/23 06:59:26;;;;;;;6.17;5.57;;;20.60;1.00;;;;;;5014040;28;20180;-88
2022/04/23 07:01:51;;;;;;;6.10;5.60;;;20.90;1.00;;;;;;5013629;28;20601;-87
2022/04/23 07:04:17;;;;;;;7.17;5.87;;;20.40;1.00;;;;;;5029031;28;20436;-85
2022/04/23 07:06:42;;;;;;;7.13;5.70;;;19.90;1.00;;;;;;5013830;28;20170;-87
2022/04/23 07:09:08;;;;;;;5.20;4.73;;;20.90;1.00;;;;;;5013623;28;20650;-86
2022/04/23 07:11:34;;;;;;;6.20;5.70;;;20.90;1.00;;;;;;5013408;28;20634;-85
2022/04/23 07:13:59;;;;;;;6.30;5.23;;;21.20;1.00;;;;;;5013674;28;20182;-87
2022/04/23 07:16:25;;;;;;;6.23;5.23;;;20.80;1.00;;;;;;5027849;28;20177;-85
2022/04/23 07:18:53;;;;;;;6.40;5.50;;;20.90;1.00;;;;;;5013444;28;20173;-85
2022/04/23 07:21:20;;;;;;;6.70;6.10;;;21.20;1.00;;;;;;5013380;28;20180;-83
2022/04/23 07:24:05;;;;;;;6.10;5.60;;;21.50;1.00;;;;;;5013416;28;21057;-83
2022/04/23 07:26:32;;;;;;;5.37;4.87;;;21.20;1.00;;;;;;5013049;28;20523;-83
2022/04/23 07:28:58;;;;;;;6.03;5.33;;;21.40;1.00;;;;;;5013284;28;20988;-84
2022/04/23 07:31:24;;;;;;;5.90;5.10;;;21.20;1.00;;;;;;5013311;28;20412;-83
2022/04/23 07:39:17;;;;;;;4.87;4.47;;;21.70;1.00;;;;;;5013451;28;20774;-83
2022/04/23 07:41:43;;;;;;;4.37;3.97;;;22.50;1.00;;;;;;5002623;28;20454;-85
2022/04/23 07:44:09;;;;;;;4.33;3.93;;;21.30;1.00;;;;;;4994320;28;20188;-86
2022/04/23 07:46:35;;;;;;;3.70;3.40;;;22.20;1.00;;;;;;4994307;28;20846;-85
2022/04/23 07:49:01;;;;;;;5.67;4.00;;;22.20;1.00;;;;;;4993794;28;20178;-85
2022/04/23 07:51:27;;;;;;;3.43;3.00;;;22.50;1.00;;;;;;5008591;28;20422;-86
2022/04/23 07:53:53;;;;;;;4.37;3.97;;;22.20;1.00;;;;;;4993457;28;20652;-86
2022/04/23 07:56:19;;;;;;;3.67;3.37;;;22.00;1.00;;;;;;4992779;28;20227;-84
2022/04/23 07:58:44;;;;;;;4.57;3.13;;;21.10;1.00;;;;;;4993346;28;20428;-85
2022/04/23 08:01:10;;;;;;;4.23;3.83;;;22.10;1.00;;;;;;4992164;28;20182;-85
2022/04/23 08:03:35;;;;;;;3.20;2.90;;;22.60;1.00;;;;;;5007157;28;20237;-84
2022/04/23 08:06:01;;;;;;;4.10;3.37;;;22.90;1.00;;;;;;5008450;28;20175;-84
2022/04/23 08:08:26;;;;;;;3.80;3.50;;;22.00;1.00;;;;;;4993347;28;20179;-84
2022/04/23 08:10:52;;;;;;;4.60;4.00;;;22.80;1.00;;;;;;4993311;28;20251;-85
2022/04/23 08:13:17;;;;;;;3.93;3.60;;;22.60;1.00;;;;;;5008358;28;20546;-85
2022/04/23 08:15:46;;;;;;;3.80;3.40;;;22.10;1.00;;;;;;4993702;28;20175;-85
2022/04/23 08:18:12;;;;;;;3.30;3.00;;;22.70;1.00;;;;;;5008885;28;20171;-87
2022/04/23 08:20:41;;;;;;;3.90;3.23;;;22.10;1.00;;;;;;4994270;28;20454;-86
2022/04/23 08:23:09;;;;;;;4.30;3.90;;;21.90;1.00;;;;;;4993842;28;20466;-86
2022/04/23 08:25:35;;;;;;;4.93;2.60;;;22.40;1.00;;;;;;4993650;28;20465;-86
2022/04/23 08:30:46;;;;;;;4.50;3.07;;;21.80;1.00;;;;;;4997917;28;20182;-83
2022/04/23 08:33:13;;;;;;;4.07;3.30;;;21.80;1.00;;;;;;5012918;28;20481;-83
2022/04/23 08:35:39;;;;;;;3.80;3.50;;;22.00;1.00;;;;;;4998005;28;20410;-86
2022/04/23 08:38:07;;;;;;;3.27;2.97;;;22.90;1.00;;;;;;4997552;28;20463;-87
2022/04/23 08:40:41;;;;;;;5.07;3.57;;;22.20;1.00;;;;;;4997477;28;20411;-85
2022/04/23 08:43:07;;;;;;;4.60;3.30;;;22.50;1.00;;;;;;4996910;28;20402;-86
2022/04/23 08:45:37;;;;;;;3.10;2.80;;;22.70;1.00;;;;;;4997479;28;20417;-85
2022/04/23 08:48:08;;;;;;;3.80;3.50;;;23.40;1.00;;;;;;5011881;28;20502;-86
2022/04/23 08:50:38;;;;;;;3.40;2.60;;;22.50;1.00;;;;;;5015454;28;20436;-84
2022/04/23 08:53:15;;;;;;;3.53;3.23;;;24.10;1.00;;;;;;5016403;28;20981;-84
2022/04/23 08:55:45;;;;;;;3.27;2.93;;;23.70;1.00;;;;;;5016258;28;20410;-85
2022/04/23 08:58:13;;;;;;;3.10;2.77;;;23.90;1.00;;;;;;5014527;28;20470;-86
2022/04/23 09:00:39;;;;;;;3.20;2.90;;;23.60;1.00;;;;;;5016178;28;20901;-85
2022/04/23 09:03:05;;;;;;;3.77;3.47;;;22.80;1.00;;;;;;5015702;28;20418;-85
2022/04/23 09:05:31;;;;;;;3.67;3.37;;;22.60;1.00;;;;;;5016203;28;20417;-84
2022/04/23 09:07:57;;;;;;;3.33;3.03;;;22.60;1.00;;;;;;5014486;28;20175;-82
2022/04/23 09:10:41;;;;;;;3.93;3.63;;;22.10;1.00;;;;;;5014830;28;20502;-82
2022/04/23 09:13:07;;;;;;;3.90;3.20;;;22.10;1.00;;;;;;5008516;28;20947;-83
2022/04/23 09:24:10;;;;;;;3.90;3.13;;;22.90;1.00;;;;;;4996455;28;20421;-84
2022/04/23 09:26:40;;;;;;;3.87;3.47;;;22.50;1.00;;;;;;4995915;28;20419;-83
2022/04/23 09:29:18;;;;;;;4.37;4.00;;;23.00;1.00;;;;;;4995916;28;20446;-83
2022/04/23 09:31:44;;;;;;;3.67;3.37;;;22.60;1.00;;;;;;4996044;28;20876;-83
2022/04/23 09:34:23;;;;;;;3.20;3.00;;;23.80;1.00;;;;;;5011374;28;20426;-84
2022/04/23 09:36:52;;;;;;;3.63;3.33;;;23.60;1.00;;;;;;4996339;28;20406;-84
2022/04/23 09:39:30;;;;;;;3.80;3.50;;;23.70;1.00;;;;;;5010299;28;20489;-85
2022/04/23 09:42:14;;;;;;;3.17;2.87;;;24.20;1.00;;;;;;4995841;28;20442;-83
2022/04/23 09:44:41;;;;;;;5.93;3.07;;;22.90;1.00;;;;;;4996278;28;20437;-84
2022/04/23 09:47:07;;;;;;;3.80;3.50;;;22.90;1.00;;;;;;5011230;28;20422;-84
2022/04/23 09:49:33;;;;;;;3.20;3.00;;;24.00;1.00;;;;;;4995838;28;20808;-83
2022/04/23 09:52:09;;;;;;;3.40;3.10;;;22.90;1.00;;;;;;4995761;28;20195;-83
2022/04/23 09:54:37;;;;;;;3.63;3.33;;;23.20;1.00;;;;;;4995695;28;20175;-84
2022/04/23 09:57:03;;;;;;;3.23;2.93;;;22.30;1.00;;;;;;4995092;28;20466;-83
2022/04/23 09:59:29;;;;;;;3.27;2.97;;;23.00;1.00;;;;;;4995605;28;20451;-83
2022/04/23 10:01:56;;;;;;;3.13;2.93;;;22.60;1.00;;;;;;4995603;28;20446;-83
2022/04/23 10:04:24;;;;;;;4.47;4.07;;;21.70;1.00;;;;;;4995573;28;20934;-83
2022/04/23 10:06:51;;;;;;;3.40;3.10;;;23.10;1.00;;;;;;4995525;28;20949;-82
2022/04/23 10:09:20;;;;;;;3.13;2.80;;;23.30;1.00;;;;;;4995418;28;20937;-84
2022/04/23 10:11:50;;;;;;;2.97;2.77;;;22.60;1.00;;;;;;5010037;28;20481;-84
2022/04/23 10:14:22;;;;;;;3.83;3.43;;;23.10;1.00;;;;;;4995356;28;20505;-83
2022/04/23 10:16:49;;;;;;;3.30;3.00;;;23.10;1.00;;;;;;5010406;28;20435;-84
2022/04/23 10:19:15;;;;;;;3.40;3.10;;;23.80;1.00;;;;;;4995220;28;20549;-85
2022/04/23 10:21:50;;;;;;;3.00;2.70;;;22.30;1.00;;;;;;5010224;28;20772;-83
2022/04/23 10:24:57;;;;;;;3.77;3.07;;;23.70;1.00;;;;;;4995211;28;20412;-83
2022/04/23 10:27:25;;;;;;;3.40;3.10;;;24.10;1.00;;;;;;4994804;28;20968;-84
2022/04/23 10:30:00;;;;;;;4.60;3.83;;;23.70;1.00;;;;;;4995065;28;20410;-83
2022/04/23 10:32:25;;;;;;;3.40;3.10;;;22.60;1.00;;;;;;4995059;28;20478;-83
2022/04/23 10:34:51;;;;;;;3.30;3.00;;;23.40;1.00;;;;;;4994882;28;20419;-84
2022/04/23 10:37:25;;;;;;;4.40;3.10;;;23.80;1.00;;;;;;5009662;28;20223;-82
2022/04/23 10:39:51;;;;;;;3.27;2.97;;;22.10;1.00;;;;;;4994895;28;20163;-82
2022/04/23 10:42:21;;;;;;;3.87;2.87;;;22.70;1.00;;;;;;5006008;28;21004;-84
2022/04/23 10:44:48;;;;;;;3.27;3.00;;;23.30;1.00;;;;;;5014206;28;20170;-85
2022/04/23 10:47:34;;;;;;;3.30;3.03;;;23.00;1.00;;;;;;5014020;28;20544;-84
2022/04/23 10:50:16;;;;;;;4.43;3.07;;;23.20;1.00;;;;;;5012461;28;21032;-87
2022/04/23 10:52:43;;;;;;;3.37;3.07;;;23.40;1.00;;;;;;5004915;28;20501;-88
2022/04/23 10:55:09;;;;;;;3.20;3.00;;;24.10;1.00;;;;;;5020496;28;20822;-87
2022/04/23 10:57:35;;;;;;;3.97;3.67;;;24.20;1.00;;;;;;5010893;28;20477;-84
2022/04/23 11:00:11;;;;;;;4.10;3.77;;;22.90;1.00;;;;;;5012706;28;20418;-84
2022/04/23 11:02:39;;;;;;;4.37;3.73;;;22.50;1.00;;;;;;5011402;28;20186;-85
2022/04/23 11:13:39;;;;;;;3.50;3.20;;;23.30;1.00;;;;;;5012572;28;20445;-86
2022/04/23 11:16:05;;;;;;;2.97;2.77;;;22.80;1.00;;;;;;5012702;28;20457;-86
2022/04/23 11:18:33;;;;;;;4.20;3.90;;;21.90;1.00;;;;;;5012687;28;20517;-84
2022/04/23 11:21:20;;;;;;;3.93;3.63;;;21.20;1.00;;;;;;5012553;28;20437;-85
2022/04/23 11:23:47;;;;;;;4.60;4.20;;;22.80;1.00;;;;;;5013030;28;20416;-87
2022/04/23 11:26:22;;;;;;;3.50;3.30;;;23.00;1.00;;;;;;5013031;28;20414;-86
2022/04/23 11:28:58;;;;;;;3.70;3.40;;;23.80;1.00;;;;;;5013429;28;20409;-85
2022/04/23 11:31:24;;;;;;;3.57;3.27;;;23.30;1.00;;;;;;5012376;28;20444;-82
2022/04/23 11:33:54;;;;;;;3.77;3.40;;;22.90;1.00;;;;;;5013217;28;20996;-85
2022/04/23 11:36:27;;;;;;;3.97;3.57;;;24.30;1.00;;;;;;5055417;22;20600;-85
2022/04/23 11:38:57;;;;;;;4.83;4.53;;;23.60;1.00;;;;;;5054898;28;20420;-86
2022/04/23 11:41:33;;;;;;;4.30;3.90;;;23.40;1.00;;;;;;5072381;28;20419;-86
2022/04/23 11:44:12;;;;;;;3.80;3.50;;;24.10;1.00;;;;;;5072624;28;20417;-87
2022/04/23 11:46:41;;;;;;;3.80;3.50;;;24.40;1.00;;;;;;5072746;28;20930;-84
2022/04/23 11:49:07;;;;;;;3.60;3.30;;;22.40;1.00;;;;;;5072662;28;20415;-86
2022/04/23 11:51:33;;;;;;;4.30;3.90;;;22.80;1.00;;;;;;5054730;28;20455;-87
2022/04/23 11:53:58;;;;;;;4.27;3.93;;;22.70;1.00;;;;;;5072725;28;20524;-86
2022/04/23 11:56:27;;;;;;;3.87;3.53;;;21.30;1.00;;;;;;5072292;28;20172;-86
2022/04/23 11:58:56;;;;;;;3.97;3.67;;;22.30;1.00;;;;;;5072697;28;20169;-85
2022/04/23 12:01:23;;;;;;;3.60;3.30;;;23.60;1.00;;;;;;5054005;28;20458;-87
2022/04/23 12:03:50;;;;;;;3.80;3.40;;;24.00;1.00;;;;;;5054264;28;20473;-87
2022/04/23 12:06:16;;;;;;;3.93;3.63;;;23.80;1.00;;;;;;5072447;28;20813;-87
2022/04/23 12:08:41;;;;;;;3.70;3.43;;;24.50;1.00;;;;;;5072401;28;20407;-87
2022/04/23 12:11:26;;;;;;;4.73;4.33;;;25.00;1.00;;;;;;5072227;28;20173;-86
2022/04/23 12:13:52;;;;;;;4.80;3.73;;;23.40;1.00;;;;;;5054569;28;20216;-87
2022/04/23 12:16:31;;;;;;;3.77;3.47;;;23.60;1.00;;;;;;5054439;28;20478;-87
2022/04/23 12:19:05;;;;;;;4.30;4.00;;;22.90;1.00;;;;;;5072361;28;20590;-86
2022/04/23 12:21:32;;;;;;;4.47;4.17;;;22.30;1.00;;;;;;5072513;28;20486;-87
2022/04/23 12:23:57;;;;;;;3.70;3.27;;;20.90;1.00;;;;;;5072257;28;20425;-85
2022/04/23 12:26:24;;;;;;;3.50;3.20;;;22.10;1.00;;;;;;5071847;28;20902;-84
2022/04/23 12:42:30;;;;;;;3.27;2.97;;;24.10;1.00;;;;;;5072291;28;20500;-85
2022/04/23 12:44:55;;;;;;;5.83;3.30;;;22.40;1.00;;;;;;5072103;28;21091;-86
2022/04/23 12:47:34;;;;;;;3.50;3.20;;;23.10;1.00;;;;;;5071994;28;20445;-85
2022/04/23 12:50:07;;;;;;;3.90;3.60;;;23.30;1.00;;;;;;5072018;28;20169;-86
2022/04/23 12:52:44;;;;;;;5.20;3.77;;;22.70;1.00;;;;;;5073085;28;20463;-88
2022/04/23 12:55:17;;;;;;;4.13;3.57;;;22.80;1.00;;;;;;5072850;28;20403;-82
2022/04/23 12:58:07;;;;;;;3.43;3.17;;;23.00;1.00;;;;;;5055193;28;20445;-84
2022/04/23 13:00:35;;;;;;;4.40;3.60;;;23.40;1.00;;;;;;5044892;28;20411;-83
2022/04/23 13:03:17;;;;;;;3.70;3.40;;;23.30;1.00;;;;;;5072535;28;20415;-83
2022/04/23 13:05:43;;;;;;;4.00;3.40;;;22.40;1.00;;;;;;5072448;28;20474;-82
2022/04/23 13:10:53;;;;;;;3.40;3.10;;;23.00;1.00;;;;;;5072222;28;20187;-84
2022/04/23 13:13:21;;;;;;;3.37;3.07;;;23.80;1.00;;;;;;5072503;28;20467;-83
2022/04/23 13:15:48;;;;;;;3.30;3.00;;;23.20;1.00;;;;;;5075721;28;20169;-84
2022/04/23 13:18:13;;;;;;;3.93;3.63;;;22.90;1.00;;;;;;5075890;28;20411;-86
2022/04/23 13:20:39;;;;;;;4.40;4.03;;;22.50;1.00;;;;;;5075997;28;20452;-84
2022/04/23 13:23:05;;;;;;;3.30;2.93;;;22.40;1.00;;;;;;5058028;28;20222;-82
2022/04/23 13:25:31;;;;;;;3.70;3.40;;;22.30;1.00;;;;;;5075847;28;20165;-84
2022/04/23 13:27:57;;;;;;;5.20;4.10;;;22.80;1.00;;;;;;5076432;28;20667;-83
2022/04/23 13:30:23;;;;;;;2.97;2.70;;;22.70;1.00;;;;;;5075645;28;20415;-83
2022/04/23 13:32:49;;;;;;;3.70;3.40;;;23.00;1.00;;;;;;5075691;28;20204;-86
2022/04/23 13:35:16;;;;;;;5.37;4.60;;;22.90;1.00;;;;;;5075375;28;20671;-84
2022/04/23 13:37:43;;;;;;;5.43;4.93;;;21.50;1.00;;;;;;5075103;28;20999;-87
2022/04/23 13:40:10;;;;;;;8.03;4.60;;;20.70;1.00;;;;;;5074710;28;20407;-85
2022/04/23 13:42:38;;;;;;;5.13;4.70;;;20.10;1.00;;;;;;5073441;28;20454;-82